Dennison, Illinois
Current Conditions -  °F | °C
As of 8:53 AM on Thursday 23 Oct 2014 (Local Time) from KHUF Reporting Station
Clear Clear  
Wind Chill: 40°   Ceiling: Unl
Heat Index: 43°   Visibility: 7mi
Dew Point: 41°   Wind: 5mph
Humidity: 93%   Direction: 160°SSE
Pressure: 30.26"   Gusts: NA
Location:  39.46°N, 87.6°W
Report Text: KHUF 231353Z 16004KT 7SM CLR 06/05 A3026 RMK AO2 SLP249 T00610050
Loading
Personal Weather Stations






























Interactive Weather Map
Tropical Storm Tracking
New forecast layout! Learn more

10-Day Weather Forecast

Advertisements
Track Severe Weather on mobile